Onemo, Virginia
Current Conditions -  °F | °C
As of 7:55 AM on Tuesday 21 Oct 2014 (Local Time) from KW75 Reporting Station
Broken Clouds Broken Clouds  
Wind Chill: 57°   Ceiling: 11000
Heat Index: 57°   Visibility: 10mi
Dew Point: 53°   Wind: 5mph
Humidity: 88%   Direction: 200°SSW
Pressure: 29.89"   Gusts: NA
Location:  37.4°N, 76.27°W
Report Text: KW75 211155Z AUTO 20004KT 10SM BKN110 14/12 A2989 RMK AO1 T01370118 10148 20136
Loading
Personal Weather Stations






























Interactive Weather Map
Tropical Storm Tracking
New forecast layout! Learn more

10-Day Weather Forecast

Advertisements
Track Severe Weather on mobile